PRIVATE WETTERSTATION BILLIGHEIM-ALLFELD                       ZURCK
Wetterdaten: Donnerstag, 29.06.2017
Datum Zeit Temp. A. Temp. A. min Temp. A. max Feuchte A. Luftdruck Regen Wind Richtung Richtung Sonnenschein ET Solar Taupunkt Windchill Windben Empfang
29.06.2017 00:00 18,2 C 18,2 C 18,3 C 83 % 994,6 hPa 0,0 l/m 0,0 km/h (0 Bft) N 0 0 min 0,025 mm 0 W/m 15,3 C 18,2 C 0,0 km/h (0 Bft) 100 %
29.06.2017 00:10 18,1 C 18,1 C 18,2 C 85 % 994,8 hPa 0,0 l/m 0,0 km/h (0 Bft) N 0 0 min 0,000 mm 0 W/m 15,5 C 18,1 C 0,0 km/h (0 Bft) 99 %
29.06.2017 00:20 17,8 C 17,8 C 18,1 C 85 % 994,9 hPa 0,0 l/m 3,2 km/h (1 Bft) S-SO 157 0 min 0,000 mm 0 W/m 15,2 C 17,8 C 9,7 km/h (2 Bft) 99 %
29.06.2017 00:30 17,7 C 17,7 C 17,8 C 85 % 994,8 hPa 0,0 l/m 4,8 km/h (1 Bft) S 180 0 min 0,000 mm 0 W/m 15,1 C 17,7 C 9,7 km/h (2 Bft) 98 %
29.06.2017 00:40 17,8 C 17,8 C 17,8 C 86 % 994,7 hPa 0,0 l/m 4,8 km/h (1 Bft) S-SO 157 0 min 0,000 mm 0 W/m 15,4 C 17,8 C 11,3 km/h (2 Bft) 97 %
29.06.2017 00:50 17,8 C 17,8 C 17,8 C 87 % 994,8 hPa 0,0 l/m 6,4 km/h (2 Bft) S-SO 157 0 min 0,000 mm 0 W/m 15,6 C 17,8 C 11,3 km/h (2 Bft) 98 %
29.06.2017 01:00 17,7 C 17,7 C 17,8 C 88 % 995,0 hPa 0,0 l/m 12,9 km/h (3 Bft) S-SW 202 0 min 0,025 mm 0 W/m 15,7 C 15,1 C 24,1 km/h (4 Bft) 97 %
29.06.2017 01:10 17,4 C 17,4 C 17,7 C 88 % 995,1 hPa 0,0 l/m 9,7 km/h (2 Bft) S 180 0 min 0,000 mm 0 W/m 15,4 C 15,9 C 19,3 km/h (3 Bft) 98 %
29.06.2017 01:20 17,2 C 17,2 C 17,4 C 89 % 995,1 hPa 0,0 l/m 9,7 km/h (2 Bft) S-SW 202 0 min 0,000 mm 0 W/m 15,4 C 15,7 C 22,5 km/h (4 Bft) 97 %
29.06.2017 01:30 17,0 C 17,0 C 17,2 C 89 % 995,2 hPa 0,2 l/m 11,3 km/h (2 Bft) S-SW 202 0 min 0,000 mm 0 W/m 15,2 C 14,8 C 22,5 km/h (4 Bft) 98 %
29.06.2017 01:40 16,8 C 16,8 C 17,0 C 89 % 995,3 hPa 0,0 l/m 9,7 km/h (2 Bft) S-SW 202 0 min 0,000 mm 0 W/m 15,0 C 15,2 C 24,1 km/h (4 Bft) 98 %
29.06.2017 01:50 16,6 C 16,6 C 16,8 C 89 % 995,3 hPa 0,2 l/m 8,0 km/h (2 Bft) S-SW 202 0 min 0,000 mm 0 W/m 14,8 C 15,8 C 19,3 km/h (3 Bft) 97 %
29.06.2017 02:00 16,5 C 16,5 C 16,6 C 90 % 995,3 hPa 0,2 l/m 4,8 km/h (1 Bft) S-SW 202 0 min 0,025 mm 0 W/m 14,9 C 16,5 C 16,1 km/h (3 Bft) 97 %
29.06.2017 02:10 16,4 C 16,4 C 16,5 C 90 % 995,3 hPa 0,8 l/m 1,6 km/h (1 Bft) S 180 0 min 0,000 mm 0 W/m 14,8 C 16,4 C 9,7 km/h (2 Bft) 97 %
29.06.2017 02:20 16,3 C 16,3 C 16,4 C 90 % 995,4 hPa 0,8 l/m 1,6 km/h (1 Bft) S 180 0 min 0,000 mm 0 W/m 14,7 C 16,3 C 9,7 km/h (2 Bft) 98 %
29.06.2017 02:30 16,3 C 16,2 C 16,3 C 90 % 995,4 hPa 0,6 l/m 3,2 km/h (1 Bft) S 180 0 min 0,000 mm 0 W/m 14,7 C 16,3 C 17,7 km/h (3 Bft) 97 %
29.06.2017 02:40 16,1 C 16,1 C 16,3 C 90 % 995,3 hPa 0,6 l/m 4,8 km/h (1 Bft) S-SW 202 0 min 0,000 mm 0 W/m 14,5 C 16,1 C 19,3 km/h (3 Bft) 98 %
29.06.2017 02:50 16,0 C 16,0 C 16,2 C 90 % 995,3 hPa 0,4 l/m 6,4 km/h (2 Bft) S-SW 202 0 min 0,000 mm 0 W/m 14,4 C 16,0 C 19,3 km/h (3 Bft) 98 %
29.06.2017 03:00 15,9 C 15,9 C 16,0 C 90 % 995,3 hPa 0,4 l/m 8,0 km/h (2 Bft) S-SW 202 0 min 0,000 mm 0 W/m 14,3 C 15,0 C 17,7 km/h (3 Bft) 97 %
29.06.2017 03:10 15,8 C 15,8 C 15,9 C 91 % 995,3 hPa 0,6 l/m 4,8 km/h (1 Bft) S-SW 202 0 min 0,000 mm 0 W/m 14,3 C 15,8 C 16,1 km/h (3 Bft) 98 %
29.06.2017 03:20 15,8 C 15,8 C 15,8 C 91 % 995,3 hPa 0,2 l/m 4,8 km/h (1 Bft) S-SW 202 0 min 0,000 mm 0 W/m 14,3 C 15,8 C 16,1 km/h (3 Bft) 97 %
29.06.2017 03:30 15,7 C 15,7 C 15,8 C 91 % 995,3 hPa 0,6 l/m 6,4 km/h (2 Bft) S-SW 202 0 min 0,000 mm 0 W/m 14,2 C 15,7 C 16,1 km/h (3 Bft) 98 %
29.06.2017 03:40 15,7 C 15,7 C 15,7 C 91 % 995,4 hPa 0,2 l/m 6,4 km/h (2 Bft) SW 225 0 min 0,000 mm 0 W/m 14,2 C 15,7 C 19,3 km/h (3 Bft) 97 %
29.06.2017 03:50 15,6 C 15,6 C 15,7 C 91 % 995,4 hPa 0,4 l/m 9,7 km/h (2 Bft) W-SW 247 0 min 0,000 mm 0 W/m 14,1 C 13,9 C 22,5 km/h (4 Bft) 98 %
29.06.2017 04:00 15,6 C 15,6 C 15,6 C 91 % 995,4 hPa 0,4 l/m 9,7 km/h (2 Bft) W-SW 247 0 min 0,025 mm 0 W/m 14,1 C 13,9 C 24,1 km/h (4 Bft) 98 %
29.06.2017 04:10 15,4 C 15,4 C 15,6 C 91 % 995,5 hPa 0,8 l/m 11,3 km/h (2 Bft) W-SW 247 0 min 0,000 mm 0 W/m 13,9 C 13,0 C 22,5 km/h (4 Bft) 97 %
29.06.2017 04:20 15,3 C 15,3 C 15,4 C 91 % 995,5 hPa 1,4 l/m 8,0 km/h (2 Bft) W-SW 247 0 min 0,000 mm 0 W/m 13,8 C 14,4 C 20,9 km/h (4 Bft) 97 %
29.06.2017 04:30 15,2 C 15,2 C 15,3 C 91 % 995,7 hPa 1,0 l/m 9,7 km/h (2 Bft) W-SW 247 0 min 0,000 mm 0 W/m 13,7 C 13,5 C 24,1 km/h (4 Bft) 97 %
29.06.2017 04:40 15,1 C 15,1 C 15,2 C 91 % 995,8 hPa 1,2 l/m 11,3 km/h (2 Bft) SW 225 0 min 0,000 mm 0 W/m 13,6 C 12,7 C 22,5 km/h (4 Bft) 97 %
29.06.2017 04:50 15,1 C 15,1 C 15,1 C 91 % 995,7 hPa 0,8 l/m 6,4 km/h (2 Bft) SW 225 0 min 0,000 mm 0 W/m 13,6 C 15,1 C 16,1 km/h (3 Bft) 98 %
29.06.2017 05:00 15,1 C 15,1 C 15,1 C 91 % 995,7 hPa 0,4 l/m 8,0 km/h (2 Bft) SW 225 0 min 0,025 mm 0 W/m 13,6 C 14,2 C 20,9 km/h (4 Bft) 88 %
29.06.2017 05:10 15,1 C 15,1 C 15,1 C 91 % 995,8 hPa 0,8 l/m 9,7 km/h (2 Bft) S-SW 202 0 min 0,000 mm 0 W/m 13,6 C 13,4 C 19,3 km/h (3 Bft) 98 %
29.06.2017 05:20 15,1 C 15,1 C 15,1 C 91 % 995,8 hPa 0,4 l/m 9,7 km/h (2 Bft) SW 225 0 min 0,000 mm 0 W/m 13,6 C 13,4 C 19,3 km/h (3 Bft) 97 %
29.06.2017 05:30 15,1 C 15,1 C 15,1 C 91 % 996,0 hPa 0,4 l/m 6,4 km/h (2 Bft) SW 225 0 min 0,000 mm 0 W/m 13,6 C 15,1 C 16,1 km/h (3 Bft) 98 %
29.06.2017 05:40 15,1 C 15,1 C 15,1 C 91 % 995,9 hPa 0,8 l/m 8,0 km/h (2 Bft) W-SW 247 0 min 0,000 mm 0 W/m 13,6 C 14,2 C 20,9 km/h (4 Bft) 97 %
29.06.2017 05:50 15,1 C 15,1 C 15,1 C 91 % 996,0 hPa 0,4 l/m 8,0 km/h (2 Bft) W-SW 247 0 min 0,000 mm 0 W/m 13,6 C 14,2 C 25,7 km/h (4 Bft) 97 %
29.06.2017 06:00 15,1 C 15,1 C 15,1 C 91 % 996,0 hPa 0,4 l/m 6,4 km/h (2 Bft) SW 225 0 min 0,000 mm 0 W/m 13,6 C 15,1 C 22,5 km/h (4 Bft) 97 %
29.06.2017 06:10 15,1 C 15,1 C 15,1 C 91 % 996,0 hPa 0,4 l/m 3,2 km/h (1 Bft) W-SW 247 0 min 0,000 mm 5 W/m 13,6 C 15,1 C 27,4 km/h (4 Bft) 96 %
29.06.2017 06:20 15,1 C 15,1 C 15,1 C 91 % 996,0 hPa 0,4 l/m 6,4 km/h (2 Bft) SW 225 0 min 0,000 mm 7 W/m 13,6 C 15,1 C 17,7 km/h (3 Bft) 98 %
29.06.2017 06:30 15,1 C 15,1 C 15,1 C 91 % 996,0 hPa 0,4 l/m 3,2 km/h (1 Bft) W 270 0 min 0,000 mm 9 W/m 13,6 C 15,1 C 27,4 km/h (4 Bft) 97 %
29.06.2017 06:40 15,1 C 15,1 C 15,1 C 91 % 996,0 hPa 0,4 l/m 8,0 km/h (2 Bft) W-SW 247 0 min 0,000 mm 9 W/m 13,6 C 14,2 C 22,5 km/h (4 Bft) 98 %
29.06.2017 06:50 15,1 C 15,1 C 15,1 C 91 % 996,1 hPa 0,6 l/m 6,4 km/h (2 Bft) W-SW 247 0 min 0,000 mm 14 W/m 13,6 C 15,1 C 25,7 km/h (4 Bft) 97 %
29.06.2017 07:00 15,1 C 15,1 C 15,1 C 91 % 996,1 hPa 0,2 l/m 9,7 km/h (2 Bft) SW 225 0 min 0,000 mm 14 W/m 13,6 C 13,4 C 25,7 km/h (4 Bft) 98 %
29.06.2017 07:10 15,0 C 15,0 C 15,1 C 91 % 996,2 hPa 0,4 l/m 8,0 km/h (2 Bft) SW 225 0 min 0,000 mm 23 W/m 13,5 C 14,1 C 29,0 km/h (5 Bft) 98 %
29.06.2017 07:20 15,0 C 15,0 C 15,1 C 91 % 996,2 hPa 0,4 l/m 6,4 km/h (2 Bft) SW 225 0 min 0,000 mm 30 W/m 13,5 C 15,0 C 20,9 km/h (4 Bft) 97 %
29.06.2017 07:30 15,1 C 15,0 C 15,1 C 91 % 996,3 hPa 0,4 l/m 4,8 km/h (1 Bft) W-SW 247 0 min 0,000 mm 44 W/m 13,6 C 15,1 C 19,3 km/h (3 Bft) 98 %
29.06.2017 07:40 15,1 C 15,1 C 15,1 C 91 % 996,4 hPa 0,4 l/m 8,0 km/h (2 Bft) W-SW 247 0 min 0,000 mm 42 W/m 13,6 C 14,2 C 20,9 km/h (4 Bft) 97 %
29.06.2017 07:50 15,1 C 15,1 C 15,1 C 91 % 996,5 hPa 0,4 l/m 4,8 km/h (1 Bft) W-SW 247 0 min 0,000 mm 46 W/m 13,6 C 15,1 C 19,3 km/h (3 Bft) 98 %
29.06.2017 08:00 15,1 C 15,1 C 15,1 C 91 % 996,6 hPa 0,4 l/m 6,4 km/h (2 Bft) W-SW 247 0 min 0,025 mm 58 W/m 13,6 C 15,1 C 17,7 km/h (3 Bft) 96 %
29.06.2017 08:10 15,1 C 15,1 C 15,1 C 91 % 996,8 hPa 0,2 l/m 4,8 km/h (1 Bft) W 270 0 min 0,000 mm 62 W/m 13,6 C 15,1 C 17,7 km/h (3 Bft) 98 %
29.06.2017 08:20 15,1 C 15,1 C 15,1 C 91 % 996,8 hPa 0,4 l/m 3,2 km/h (1 Bft) W-SW 247 0 min 0,000 mm 72 W/m 13,6 C 15,1 C 11,3 km/h (2 Bft) 98 %
29.06.2017 08:30 15,1 C 15,1 C 15,1 C 91 % 996,9 hPa 0,4 l/m 1,6 km/h (1 Bft) W-SW 247 0 min 0,000 mm 63 W/m 13,6 C 15,1 C 20,9 km/h (4 Bft) 98 %
29.06.2017 08:40 15,2 C 15,1 C 15,2 C 91 % 996,9 hPa 0,0 l/m 3,2 km/h (1 Bft) SW 225 0 min 0,000 mm 95 W/m 13,7 C 15,2 C 14,5 km/h (3 Bft) 98 %
29.06.2017 08:50 15,3 C 15,2 C 15,3 C 91 % 996,9 hPa 0,2 l/m 4,8 km/h (1 Bft) W-SW 247 0 min 0,000 mm 100 W/m 13,8 C 15,3 C 14,5 km/h (3 Bft) 97 %
29.06.2017 09:00 15,3 C 15,3 C 15,4 C 91 % 996,9 hPa 0,0 l/m 6,4 km/h (2 Bft) SW 225 0 min 0,051 mm 88 W/m 13,8 C 15,3 C 17,7 km/h (3 Bft) 97 %
29.06.2017 09:10 15,3 C 15,3 C 15,3 C 91 % 997,0 hPa 0,0 l/m 6,4 km/h (2 Bft) SW 225 0 min 0,000 mm 86 W/m 13,8 C 15,3 C 17,7 km/h (3 Bft) 97 %
29.06.2017 09:20 15,4 C 15,3 C 15,4 C 91 % 997,1 hPa 0,0 l/m 3,2 km/h (1 Bft) SW 225 0 min 0,000 mm 88 W/m 13,9 C 15,4 C 11,3 km/h (2 Bft) 97 %
29.06.2017 09:30 15,4 C 15,3 C 15,4 C 91 % 997,1 hPa 0,0 l/m 4,8 km/h (1 Bft) SW 225 0 min 0,000 mm 98 W/m 13,9 C 15,4 C 17,7 km/h (3 Bft) 98 %
29.06.2017 09:40 15,4 C 15,4 C 15,4 C 91 % 997,3 hPa 0,2 l/m 9,7 km/h (2 Bft) SW 225 0 min 0,000 mm 127 W/m 13,9 C 13,7 C 29,0 km/h (5 Bft) 98 %
29.06.2017 09:50 15,5 C 15,4 C 15,5 C 91 % 997,4 hPa 0,0 l/m 9,7 km/h (2 Bft) SW 225 0 min 0,000 mm 151 W/m 14,0 C 13,8 C 20,9 km/h (4 Bft) 98 %
29.06.2017 10:00 15,5 C 15,4 C 15,5 C 91 % 997,5 hPa 0,0 l/m 6,4 km/h (2 Bft) W-SW 247 0 min 0,051 mm 148 W/m 14,0 C 15,5 C 17,7 km/h (3 Bft) 97 %
29.06.2017 10:10 15,6 C 15,5 C 15,6 C 91 % 997,5 hPa 0,0 l/m 8,0 km/h (2 Bft) W-SW 247 10 min 0,000 mm 172 W/m 14,1 C 14,7 C 22,5 km/h (4 Bft) 98 %
29.06.2017 10:20 15,6 C 15,5 C 15,7 C 91 % 997,6 hPa 0,0 l/m 6,4 km/h (2 Bft) SW 225 10 min 0,000 mm 243 W/m 14,1 C 15,6 C 24,1 km/h (4 Bft) 97 %
29.06.2017 10:30 15,8 C 15,6 C 15,8 C 91 % 997,7 hPa 0,0 l/m 8,0 km/h (2 Bft) S-SW 202 10 min 0,000 mm 232 W/m 14,3 C 14,9 C 20,9 km/h (4 Bft) 97 %
29.06.2017 10:40 15,8 C 15,7 C 15,8 C 91 % 997,7 hPa 0,0 l/m 8,0 km/h (2 Bft) SW 225 10 min 0,000 mm 285 W/m 14,3 C 14,9 C 19,3 km/h (3 Bft) 98 %
29.06.2017 10:50 15,9 C 15,8 C 15,9 C 91 % 997,7 hPa 0,0 l/m 6,4 km/h (2 Bft) SW 225 10 min 0,000 mm 283 W/m 14,4 C 15,9 C 22,5 km/h (4 Bft) 97 %
29.06.2017 11:00 15,9 C 15,9 C 16,0 C 91 % 997,7 hPa 0,0 l/m 8,0 km/h (2 Bft) W-SW 247 10 min 0,127 mm 278 W/m 14,4 C 15,0 C 24,1 km/h (4 Bft) 98 %
29.06.2017 11:10 16,0 C 15,9 C 16,0 C 91 % 997,7 hPa 0,0 l/m 8,0 km/h (2 Bft) W-SW 247 10 min 0,000 mm 281 W/m 14,5 C 15,2 C 22,5 km/h (4 Bft) 97 %
29.06.2017 11:20 16,2 C 16,0 C 16,2 C 91 % 997,7 hPa 0,0 l/m 4,8 km/h (1 Bft) SW 225 10 min 0,000 mm 285 W/m 14,7 C 16,2 C 16,1 km/h (3 Bft) 97 %
29.06.2017 11:30 16,3 C 16,2 C 16,3 C 91 % 997,8 hPa 0,0 l/m 4,8 km/h (1 Bft) SW 225 10 min 0,000 mm 299 W/m 14,8 C 16,3 C 17,7 km/h (3 Bft) 96 %
29.06.2017 11:40 16,5 C 16,3 C 16,5 C 91 % 997,9 hPa 0,0 l/m 4,8 km/h (1 Bft) W-SW 247 10 min 0,000 mm 315 W/m 15,0 C 16,5 C 16,1 km/h (3 Bft) 98 %
29.06.2017 11:50 16,6 C 16,5 C 16,6 C 91 % 997,9 hPa 0,0 l/m 6,4 km/h (2 Bft) W 270 10 min 0,000 mm 346 W/m 15,1 C 16,6 C 19,3 km/h (3 Bft) 98 %
29.06.2017 12:00 16,8 C 16,6 C 16,8 C 90 % 998,0 hPa 0,0 l/m 4,8 km/h (1 Bft) W-SW 247 10 min 0,152 mm 360 W/m 15,1 C 16,8 C 22,5 km/h (4 Bft) 98 %
29.06.2017 12:10 16,8 C 16,7 C 16,8 C 90 % 998,0 hPa 0,0 l/m 9,7 km/h (2 Bft) S-SW 202 10 min 0,000 mm 309 W/m 15,1 C 15,2 C 24,1 km/h (4 Bft) 98 %
29.06.2017 12:20 17,0 C 16,8 C 17,0 C 90 % 998,1 hPa 0,0 l/m 6,4 km/h (2 Bft) S-SW 202 10 min 0,000 mm 301 W/m 15,3 C 17,0 C 19,3 km/h (3 Bft) 97 %
29.06.2017 12:30 17,2 C 17,0 C 17,2 C 90 % 998,2 hPa 0,0 l/m 9,7 km/h (2 Bft) SW 225 10 min 0,000 mm 563 W/m 15,5 C 15,7 C 24,1 km/h (4 Bft) 98 %
29.06.2017 12:40 17,6 C 17,2 C 17,6 C 88 % 998,1 hPa 0,0 l/m 6,4 km/h (2 Bft) W-SW 247 10 min 0,000 mm 548 W/m 15,6 C 17,6 C 22,5 km/h (4 Bft) 98 %
29.06.2017 12:50 18,0 C 17,6 C 18,0 C 87 % 998,1 hPa 0,0 l/m 8,0 km/h (2 Bft) SW 225 10 min 0,000 mm 563 W/m 15,8 C 17,3 C 20,9 km/h (4 Bft) 98 %
29.06.2017 13:00 18,3 C 18,0 C 18,3 C 87 % 998,1 hPa 0,0 l/m 11,3 km/h (2 Bft) S-SW 202 10 min 0,229 mm 566 W/m 16,1 C 16,3 C 25,7 km/h (4 Bft) 97 %
29.06.2017 13:10 18,6 C 18,3 C 18,6 C 85 % 998,1 hPa 0,0 l/m 8,0 km/h (2 Bft) SW 225 10 min 0,000 mm 475 W/m 16,0 C 17,9 C 20,9 km/h (4 Bft) 97 %
29.06.2017 13:20 18,7 C 18,6 C 18,7 C 84 % 998,1 hPa 0,0 l/m 4,8 km/h (1 Bft) SW 225 10 min 0,000 mm 415 W/m 15,9 C 18,7 C 17,7 km/h (3 Bft) 98 %
29.06.2017 13:30 18,8 C 18,7 C 18,8 C 83 % 998,1 hPa 0,0 l/m 8,0 km/h (2 Bft) W-SW 247 10 min 0,000 mm 561 W/m 15,8 C 18,1 C 19,3 km/h (3 Bft) 97 %
29.06.2017 13:40 19,2 C 18,8 C 19,2 C 81 % 998,2 hPa 0,0 l/m 11,3 km/h (2 Bft) S-SW 202 10 min 0,000 mm 689 W/m 15,9 C 17,3 C 25,7 km/h (4 Bft) 98 %
29.06.2017 13:50 19,5 C 19,2 C 19,5 C 78 % 998,2 hPa 0,0 l/m 12,9 km/h (3 Bft) W-SW 247 10 min 0,000 mm 615 W/m 15,6 C 17,2 C 25,7 km/h (4 Bft) 98 %
29.06.2017 14:00 19,8 C 19,5 C 19,8 C 79 % 998,3 hPa 0,0 l/m 4,8 km/h (1 Bft) SW 225 10 min 0,279 mm 497 W/m 16,0 C 19,8 C 16,1 km/h (3 Bft) 98 %
29.06.2017 14:10 20,1 C 19,8 C 20,1 C 79 % 998,3 hPa 0,0 l/m 8,0 km/h (2 Bft) S-SW 202 10 min 0,000 mm 663 W/m 16,3 C 19,5 C 22,5 km/h (4 Bft) 98 %
29.06.2017 14:20 20,3 C 20,1 C 20,3 C 75 % 998,2 hPa 0,0 l/m 11,3 km/h (2 Bft) S-SW 202 10 min 0,000 mm 775 W/m 15,7 C 18,6 C 25,7 km/h (4 Bft) 97 %
29.06.2017 14:30 20,6 C 20,3 C 20,6 C 75 % 998,1 hPa 0,0 l/m 9,7 km/h (2 Bft) SW 225 10 min 0,000 mm 844 W/m 16,0 C 19,4 C 29,0 km/h (5 Bft) 98 %
29.06.2017 14:40 21,1 C 20,6 C 21,1 C 70 % 998,0 hPa 0,0 l/m 6,4 km/h (2 Bft) W-SW 247 10 min 0,000 mm 817 W/m 15,4 C 21,1 C 16,1 km/h (3 Bft) 97 %
29.06.2017 14:50 21,2 C 21,1 C 21,2 C 68 % 998,0 hPa 0,0 l/m 8,0 km/h (2 Bft) W-SW 247 10 min 0,000 mm 793 W/m 15,1 C 20,6 C 16,1 km/h (3 Bft) 98 %
29.06.2017 15:00 21,2 C 21,2 C 21,3 C 68 % 998,0 hPa 0,0 l/m 8,0 km/h (2 Bft) SW 225 10 min 0,406 mm 707 W/m 15,1 C 20,6 C 22,5 km/h (4 Bft) 97 %
29.06.2017 15:10 21,4 C 21,2 C 21,4 C 64 % 997,9 hPa 0,0 l/m 9,7 km/h (2 Bft) SW 225 10 min 0,000 mm 881 W/m 14,3 C 20,3 C 20,9 km/h (4 Bft) 98 %
29.06.2017 15:40 21,8 C 21,2 C 21,8 C 63 % 997,7 hPa 0,0 l/m 7,0 km/h (2 Bft) W-SW 241 30 min 0,000 mm 501 W/m 14,4 C 21,6 C 24,1 km/h (4 Bft) 100 %
29.06.2017 15:50 22,1 C 21,8 C 22,1 C 64 % 997,7 hPa 0,0 l/m 4,8 km/h (1 Bft) S-SW 195 10 min 0,000 mm 452 W/m 15,0 C 22,1 C 20,9 km/h (4 Bft) 100 %
29.06.2017 16:00 22,4 C 22,1 C 22,4 C 64 % 997,6 hPa 0,0 l/m 8,9 km/h (2 Bft) S-SW 194 10 min 0,308 mm 763 W/m 15,2 C 21,6 C 25,7 km/h (4 Bft) 100 %
29.06.2017 16:10 22,2 C 22,2 C 22,4 C 63 % 997,7 hPa 0,0 l/m 9,3 km/h (2 Bft) SW 217 10 min 0,000 mm 246 W/m 14,8 C 21,3 C 22,5 km/h (4 Bft) 99 %
29.06.2017 16:20 21,9 C 21,9 C 22,2 C 68 % 997,6 hPa 0,0 l/m 6,7 km/h (2 Bft) W-SW 248 10 min 0,000 mm 694 W/m 15,7 C 21,8 C 19,3 km/h (3 Bft) 99 %
29.06.2017 16:30 22,3 C 21,9 C 22,3 C 64 % 997,6 hPa 0,0 l/m 8,4 km/h (2 Bft) S-SW 199 10 min 0,000 mm 478 W/m 15,2 C 21,6 C 19,3 km/h (3 Bft) 99 %
29.06.2017 16:40 22,6 C 22,3 C 22,6 C 61 % 997,6 hPa 0,0 l/m 7,3 km/h (2 Bft) W-SW 240 10 min 0,000 mm 274 W/m 14,7 C 22,3 C 24,1 km/h (4 Bft) 100 %
29.06.2017 16:50 22,7 C 22,6 C 22,8 C 64 % 997,5 hPa 0,0 l/m 9,2 km/h (2 Bft) SW 223 10 min 0,000 mm 190 W/m 15,5 C 21,8 C 24,1 km/h (4 Bft) 100 %
29.06.2017 17:00 22,0 C 22,0 C 22,8 C 65 % 997,7 hPa 0,0 l/m 8,2 km/h (2 Bft) S-SW 194 10 min 0,254 mm 160 W/m 15,1 C 21,4 C 24,1 km/h (4 Bft) 100 %
29.06.2017 17:10 21,8 C 21,7 C 22,0 C 61 % 997,6 hPa 0,0 l/m 11,4 km/h (2 Bft) SW 225 10 min 0,000 mm 169 W/m 13,9 C 20,3 C 35,4 km/h (5 Bft) 99 %
29.06.2017 17:20 22,3 C 21,8 C 22,3 C 58 % 997,8 hPa 0,0 l/m 13,5 km/h (3 Bft) W-SW 256 0 min 0,000 mm 142 W/m 13,6 C 20,3 C 30,6 km/h (5 Bft) 100 %
29.06.2017 17:30 22,3 C 22,3 C 22,4 C 58 % 997,8 hPa 0,0 l/m 13,2 km/h (3 Bft) S-SW 211 10 min 0,000 mm 246 W/m 13,6 C 20,4 C 29,0 km/h (5 Bft) 100 %
29.06.2017 17:40 21,9 C 21,9 C 22,3 C 59 % 997,9 hPa 0,0 l/m 9,5 km/h (2 Bft) W 279 0 min 0,000 mm 123 W/m 13,5 C 20,9 C 29,0 km/h (5 Bft) 99 %
29.06.2017 17:50 21,6 C 21,6 C 21,9 C 69 % 998,0 hPa 0,0 l/m 8,2 km/h (2 Bft) SW 214 10 min 0,000 mm 243 W/m 15,7 C 21,0 C 25,7 km/h (4 Bft) 99 %
29.06.2017 18:00 21,3 C 21,3 C 21,6 C 63 % 998,1 hPa 0,0 l/m 15,4 km/h (3 Bft) W-SW 252 10 min 0,177 mm 163 W/m 14,0 C 18,7 C 32,2 km/h (5 Bft) 99 %
29.06.2017 18:10 21,0 C 21,0 C 21,3 C 65 % 998,3 hPa 0,0 l/m 4,4 km/h (1 Bft) W-SW 257 0 min 0,000 mm 128 W/m 14,2 C 21,0 C 24,1 km/h (4 Bft) 100 %
29.06.2017 18:20 20,7 C 20,7 C 21,0 C 64 % 998,5 hPa 0,0 l/m 14,3 km/h (3 Bft) W-SW 258 0 min 0,000 mm 74 W/m 13,6 C 18,3 C 45,1 km/h (6 Bft) 100 %
29.06.2017 18:30 19,9 C 19,9 C 20,7 C 65 % 998,9 hPa 0,0 l/m 20,9 km/h (4 Bft) W-NW 288 10 min 0,000 mm 179 W/m 13,1 C 15,9 C 45,1 km/h (6 Bft) 100 %
29.06.2017 18:40 19,4 C 19,4 C 19,9 C 69 % 999,0 hPa 0,0 l/m 16,4 km/h (3 Bft) W 265 0 min 0,000 mm 37 W/m 13,6 C 16,2 C 30,6 km/h (5 Bft) 100 %
29.06.2017 18:50 18,6 C 18,6 C 19,4 C 70 % 999,2 hPa 0,0 l/m 12,0 km/h (2 Bft) W-NW 292 0 min 0,000 mm 86 W/m 13,0 C 16,4 C 29,0 km/h (5 Bft) 100 %
29.06.2017 19:00 18,1 C 18,1 C 18,6 C 73 % 999,2 hPa 0,0 l/m 9,9 km/h (2 Bft) W 262 0 min 0,127 mm 113 W/m 13,2 C 16,6 C 32,2 km/h (5 Bft) 98 %
29.06.2017 19:10 17,8 C 17,8 C 18,1 C 76 % 999,3 hPa 0,2 l/m 10,2 km/h (2 Bft) NW 305 0 min 0,000 mm 118 W/m 13,5 C 16,1 C 27,4 km/h (4 Bft) 100 %
29.06.2017 19:20 17,8 C 17,8 C 17,8 C 75 % 999,4 hPa 0,0 l/m 10,7 km/h (2 Bft) W-NW 300 0 min 0,000 mm 83 W/m 13,3 C 15,9 C 22,5 km/h (4 Bft) 100 %
29.06.2017 19:30 17,5 C 17,5 C 17,8 C 77 % 999,8 hPa 0,0 l/m 11,9 km/h (2 Bft) W-SW 244 0 min 0,000 mm 113 W/m 13,4 C 15,2 C 25,7 km/h (4 Bft) 100 %
29.06.2017 19:40 17,6 C 17,5 C 17,6 C 78 % 999,9 hPa 0,0 l/m 6,6 km/h (2 Bft) SW 217 10 min 0,000 mm 327 W/m 13,7 C 17,5 C 20,9 km/h (4 Bft) 99 %
29.06.2017 19:50 17,8 C 17,6 C 17,8 C 77 % 1000,3 hPa 0,0 l/m 8,6 km/h (2 Bft) W-SW 248 0 min 0,000 mm 100 W/m 13,7 C 16,8 C 25,7 km/h (4 Bft) 100 %
29.06.2017 20:00 17,7 C 17,7 C 17,8 C 77 % 1000,5 hPa 0,0 l/m 11,5 km/h (2 Bft) W-SW 253 0 min 0,102 mm 86 W/m 13,6 C 15,6 C 27,4 km/h (4 Bft) 100 %
29.06.2017 20:10 17,4 C 17,4 C 17,7 C 78 % 1000,6 hPa 0,0 l/m 8,6 km/h (2 Bft) W 267 0 min 0,000 mm 40 W/m 13,5 C 16,4 C 22,5 km/h (4 Bft) 99 %
29.06.2017 20:20 17,1 C 17,1 C 17,4 C 79 % 1000,9 hPa 0,0 l/m 12,1 km/h (2 Bft) S-SW 198 0 min 0,000 mm 25 W/m 13,4 C 14,7 C 33,8 km/h (5 Bft) 100 %
29.06.2017 20:30 16,9 C 16,9 C 17,1 C 79 % 1000,9 hPa 0,0 l/m 10,1 km/h (2 Bft) S-SW 211 0 min 0,000 mm 21 W/m 13,2 C 15,2 C 27,4 km/h (4 Bft) 99 %
29.06.2017 20:40 16,7 C 16,7 C 16,9 C 80 % 1000,9 hPa 0,0 l/m 3,6 km/h (1 Bft) W-SW 243 0 min 0,000 mm 23 W/m 13,2 C 16,7 C 20,9 km/h (4 Bft) 98 %
29.06.2017 20:50 16,6 C 16,6 C 16,7 C 81 % 1001,0 hPa 0,0 l/m 3,4 km/h (1 Bft) W 261 0 min 0,000 mm 19 W/m 13,3 C 16,6 C 17,7 km/h (3 Bft) 100 %
29.06.2017 21:00 16,6 C 16,6 C 16,6 C 80 % 1001,2 hPa 0,0 l/m 5,1 km/h (1 Bft) W 266 0 min 0,025 mm 18 W/m 13,1 C 16,6 C 20,9 km/h (4 Bft) 99 %
29.06.2017 21:10 16,6 C 16,5 C 16,6 C 80 % 1001,2 hPa 0,0 l/m 6,4 km/h (2 Bft) SW 225 0 min 0,000 mm 16 W/m 13,1 C 16,6 C 20,9 km/h (4 Bft) 99 %
29.06.2017 21:20 16,5 C 16,5 C 16,6 C 79 % 1001,2 hPa 0,0 l/m 4,8 km/h (1 Bft) SW 225 0 min 0,000 mm 9 W/m 12,8 C 16,5 C 22,5 km/h (4 Bft) 99 %
29.06.2017 21:30 16,4 C 16,4 C 16,5 C 79 % 1001,3 hPa 0,0 l/m 4,8 km/h (1 Bft) SW 225 0 min 0,000 mm 7 W/m 12,7 C 16,4 C 20,9 km/h (4 Bft) 100 %
29.06.2017 21:40 16,4 C 16,4 C 16,4 C 79 % 1001,4 hPa 0,0 l/m 8,0 km/h (2 Bft) SW 225 0 min 0,000 mm 0 W/m 12,7 C 15,6 C 20,9 km/h (4 Bft) 99 %
29.06.2017 21:50 16,3 C 16,3 C 16,4 C 79 % 1001,6 hPa 0,0 l/m 8,0 km/h (2 Bft) SW 225 0 min 0,000 mm 0 W/m 12,6 C 15,5 C 24,1 km/h (4 Bft) 100 %
29.06.2017 22:00 16,3 C 16,3 C 16,3 C 79 % 1001,6 hPa 0,0 l/m 4,8 km/h (1 Bft) SW 225 0 min 0,025 mm 0 W/m 12,6 C 16,3 C 22,5 km/h (4 Bft) 99 %
29.06.2017 22:10 16,2 C 16,2 C 16,3 C 80 % 1001,7 hPa 0,0 l/m 4,8 km/h (1 Bft) S-SW 202 0 min 0,000 mm 0 W/m 12,7 C 16,2 C 22,5 km/h (4 Bft) 100 %
29.06.2017 22:20 16,1 C 16,1 C 16,2 C 81 % 1001,8 hPa 0,0 l/m 4,8 km/h (1 Bft) SW 225 0 min 0,000 mm 0 W/m 12,8 C 16,1 C 19,3 km/h (3 Bft) 89 %
29.06.2017 22:30 16,1 C 16,1 C 16,1 C 81 % 1001,6 hPa 0,0 l/m 4,8 km/h (1 Bft) SW 225 0 min 0,000 mm 0 W/m 12,8 C 16,1 C 17,7 km/h (3 Bft) 99 %
29.06.2017 22:40 15,9 C 15,9 C 16,1 C 82 % 1001,8 hPa 0,0 l/m 3,2 km/h (1 Bft) SW 225 0 min 0,000 mm 0 W/m 12,8 C 15,9 C 16,1 km/h (3 Bft) 100 %
29.06.2017 22:50 15,6 C 15,6 C 15,9 C 83 % 1001,9 hPa 0,0 l/m 3,2 km/h (1 Bft) S-SW 202 0 min 0,000 mm 0 W/m 12,7 C 15,6 C 9,7 km/h (2 Bft) 100 %
29.06.2017 23:00 15,4 C 15,4 C 15,6 C 83 % 1001,7 hPa 0,0 l/m 1,6 km/h (1 Bft) SW 225 0 min 0,025 mm 0 W/m 12,5 C 15,4 C 11,3 km/h (2 Bft) 100 %
29.06.2017 23:10 15,2 C 15,2 C 15,4 C 84 % 1001,9 hPa 0,0 l/m 1,6 km/h (1 Bft) S-SW 202 0 min 0,000 mm 0 W/m 12,5 C 15,2 C 9,7 km/h (2 Bft) 99 %
29.06.2017 23:20 15,1 C 15,1 C 15,2 C 85 % 1002,2 hPa 0,0 l/m 1,6 km/h (1 Bft) S-SW 202 0 min 0,000 mm 0 W/m 12,6 C 15,1 C 8,0 km/h (2 Bft) 100 %
29.06.2017 23:30 14,6 C 14,6 C 15,1 C 86 % 1002,4 hPa 0,0 l/m 1,6 km/h (1 Bft) S-SW 202 0 min 0,000 mm 0 W/m 12,3 C 14,6 C 9,7 km/h (2 Bft) 100 %
29.06.2017 23:40 14,5 C 14,5 C 14,7 C 87 % 1002,5 hPa 0,0 l/m 4,8 km/h (1 Bft) S-SW 202 0 min 0,000 mm 0 W/m 12,4 C 14,5 C 16,1 km/h (3 Bft) 100 %
29.06.2017 23:50 14,4 C 14,4 C 14,5 C 88 % 1002,7 hPa 0,0 l/m 6,4 km/h (2 Bft) S-SW 202 0 min 0,000 mm 0 W/m 12,4 C 14,4 C 17,7 km/h (3 Bft) 100 %
_ Min-Zeit 23:50 23:50 23:50 17:20 00:00 - 00:00 - - - - - 23:30 04:40 00:00 05:00
Minimum _ 14,4 C 14,4 C 14,5 C 58 % 994,6 hPa - 0,0 km/h (0 Bft) - - - - - 12,3 C 12,7 C 0,0 km/h (0 Bft) 88 %
_ Max-Zeit 16:50 16:50 16:50 03:10 23:50 04:20 18:30 - - 15:40 15:00 15:10 14:10 16:40 18:20 21:30
Maximum _ 22,8 C 22,6 C 22,8 C 91 % 1002,7 hPa 1,4 l/m 20,9 km/h
W-NW (4 Bft)
- - 30 min 0,406 mm 881 W/m 16,3 C 22,3 C 45,1 km/h
W (6 Bft)
100 %
Durchschnitt _ 17,2 C 17,2 C 17,3 C 83 % 997,7 hPa #21,8 l/m 7,3 km/h (2 Bft) SW - #8:00 h #2,488 mm 252 W/m 14,2 C 16,5 C 20,9 km/h (4 Bft) 98 %
PRIVATE WETTERSTATION BILLIGHEIM-ALLFELD - www.neckar-odenwald-wetter.de - Holger Sonntag